Skip Navigation LinksHome page > Weather > Current weather Skip Navigation Links

Current Weather

New Tokyo International (Narita), Tokyo

For information only: do not use for flight planning or navigation.
Latest weather
Observation time Saturday, July 4, 2015 1:30 AM JST
Local time Saturday, July 4, 2015 1:51 AM JST
Flight conditions Visual Meteorological Conditions
Winds
Wind direction variable
Wind speed 2 mph
Visibility 6.2 mi.
Sky condition
Ceiling 15,000 ft. broken clouds
Cloud layer few clouds 500 ft.
Cloud layer scattered clouds 2,000 ft.
Cloud layer broken clouds 15,000 ft.
Temperature 68°F
Dewpoint 66°F
Altimeter 29.68 in.Hg
Derived measurements
Relative humidity 94%
Density altitude 1308 ft.
Remarks
No significant changes expected in the next two hours.
METAR RJAA 031630Z VRB02KT 9999 FEW005 SCT020 BKN150 20/19 Q1005 NOSIG RMK 1ST005 4CU020 7AC150 A2969

Settings

Location code

InnerDrive.Weather 4.0.5567.0 Release CLR 4.0.30319.34014
Copyright ©2015 Inner Drive Technology. All rights reserved. Portions Copyright ©1986-2015 David Braverman.

Find weather

Site navigation


Skip Navigation Links

Place info

Page info

PayPal - The safer, easier way to pay online!

Return home.

Copyright ©2015 Inner Drive Technology. Purveyors of fine, hand-crafted computer software. Page printed 2015-07-03T16:51:38 UTC.